sensor_id;sensor_type;location;lat;lon;timestamp;pressure;altitude;pressure_sealevel;temperature;humidity
48035;BME280;33812;46.480;6.834;2023-04-28T00:00:40;93633.66;;;21.32;35.24
48035;BME280;33812;46.480;6.834;2023-04-28T00:04:42;93642.41;;;21.31;34.87
48035;BME280;33812;46.480;6.834;2023-04-28T00:08:45;93632.31;;;21.11;35.15
48035;BME280;33812;46.480;6.834;2023-04-28T00:12:48;93637.31;;;21.29;34.77
48035;BME280;33812;46.480;6.834;2023-04-28T00:16:49;93630.00;;;21.35;34.66
48035;BME280;33812;46.480;6.834;2023-04-28T00:20:51;93633.97;;;21.47;35.02
48035;BME280;33812;46.480;6.834;2023-04-28T00:24:54;93641.94;;;21.45;35.09
48035;BME280;33812;46.480;6.834;2023-04-28T00:28:57;93637.41;;;21.38;34.79
48035;BME280;33812;46.480;6.834;2023-04-28T00:32:59;93638.88;;;21.17;34.18
48035;BME280;33812;46.480;6.834;2023-04-28T00:37:01;93629.00;;;21.16;35.07
48035;BME280;33812;46.480;6.834;2023-04-28T00:41:03;93642.59;;;21.10;34.76
48035;BME280;33812;46.480;6.834;2023-04-28T00:45:07;93640.06;;;21.03;34.88
48035;BME280;33812;46.480;6.834;2023-04-28T00:49:09;93636.75;;;21.21;34.70
48035;BME280;33812;46.480;6.834;2023-04-28T00:53:11;93623.03;;;21.44;35.72
48035;BME280;33812;46.480;6.834;2023-04-28T00:57:14;93617.53;;;21.31;34.74
48035;BME280;33812;46.480;6.834;2023-04-28T01:01:17;93607.66;;;21.30;35.38
48035;BME280;33812;46.480;6.834;2023-04-28T01:05:20;93600.81;;;21.21;34.61
48035;BME280;33812;46.480;6.834;2023-04-28T01:09:23;93602.38;;;21.22;34.56
48035;BME280;33812;46.480;6.834;2023-04-28T01:13:25;93595.38;;;21.44;35.30
48035;BME280;33812;46.480;6.834;2023-04-28T01:17:28;93599.91;;;21.50;35.66
48035;BME280;33812;46.480;6.834;2023-04-28T01:21:30;93588.59;;;21.58;35.69
48035;BME280;33812;46.480;6.834;2023-04-28T01:25:34;93597.81;;;21.55;34.83
48035;BME280;33812;46.480;6.834;2023-04-28T01:29:36;93598.69;;;21.38;35.09
48035;BME280;33812;46.480;6.834;2023-04-28T01:33:37;93607.78;;;21.39;35.02
48035;BME280;33812;46.480;6.834;2023-04-28T01:37:39;93619.59;;;21.26;34.21
48035;BME280;33812;46.480;6.834;2023-04-28T01:41:43;93612.09;;;21.14;34.73
48035;BME280;33812;46.480;6.834;2023-04-28T01:45:45;93599.06;;;21.14;34.56
48035;BME280;33812;46.480;6.834;2023-04-28T01:49:48;93602.13;;;21.30;34.77
48035;BME280;33812;46.480;6.834;2023-04-28T01:53:49;93589.97;;;21.40;35.35
48035;BME280;33812;46.480;6.834;2023-04-28T01:57:53;93609.88;;;21.35;34.79
48035;BME280;33812;46.480;6.834;2023-04-28T02:01:56;93604.69;;;21.37;34.66
48035;BME280;33812;46.480;6.834;2023-04-28T02:05:58;93597.16;;;21.37;35.14
48035;BME280;33812;46.480;6.834;2023-04-28T02:10:00;93595.94;;;21.52;35.37
48035;BME280;33812;46.480;6.834;2023-04-28T02:14:04;93607.09;;;21.35;34.27
48035;BME280;33812;46.480;6.834;2023-04-28T02:18:08;93604.78;;;21.46;34.70
48035;BME280;33812;46.480;6.834;2023-04-28T02:22:16;93603.16;;;21.10;33.89
48035;BME280;33812;46.480;6.834;2023-04-28T02:26:20;93613.53;;;21.32;34.64
48035;BME280;33812;46.480;6.834;2023-04-28T02:30:23;93617.81;;;21.07;34.29
48035;BME280;33812;46.480;6.834;2023-04-28T02:34:26;93616.94;;;21.23;34.46
48035;BME280;33812;46.480;6.834;2023-04-28T02:38:29;93617.41;;;21.21;34.62
48035;BME280;33812;46.480;6.834;2023-04-28T02:42:38;93609.22;;;21.18;34.60
48035;BME280;33812;46.480;6.834;2023-04-28T02:46:41;93608.88;;;21.02;34.64
48035;BME280;33812;46.480;6.834;2023-04-28T02:50:43;93605.44;;;21.24;34.52
48035;BME280;33812;46.480;6.834;2023-04-28T02:54:46;93618.63;;;21.20;34.08
48035;BME280;33812;46.480;6.834;2023-04-28T02:58:48;93613.97;;;21.04;34.53
48035;BME280;33812;46.480;6.834;2023-04-28T03:02:51;93617.28;;;20.99;34.44
48035;BME280;33812;46.480;6.834;2023-04-28T03:06:54;93618.19;;;21.22;34.77
48035;BME280;33812;46.480;6.834;2023-04-28T03:10:55;93614.19;;;21.36;35.44
48035;BME280;33812;46.480;6.834;2023-04-28T03:14:57;93621.06;;;21.18;34.40
48035;BME280;33812;46.480;6.834;2023-04-28T03:19:00;93628.91;;;21.20;34.41
48035;BME280;33812;46.480;6.834;2023-04-28T03:23:08;93622.16;;;21.34;34.72
48035;BME280;33812;46.480;6.834;2023-04-28T03:27:17;93622.47;;;21.23;34.44
48035;BME280;33812;46.480;6.834;2023-04-28T03:31:19;93626.34;;;21.12;34.90
48035;BME280;33812;46.480;6.834;2023-04-28T03:35:24;93623.78;;;21.05;34.18
48035;BME280;33812;46.480;6.834;2023-04-28T03:39:27;93627.25;;;21.22;34.42
48035;BME280;33812;46.480;6.834;2023-04-28T03:43:32;93631.56;;;21.23;34.59
48035;BME280;33812;46.480;6.834;2023-04-28T03:47:42;93620.94;;;21.22;34.39
48035;BME280;33812;46.480;6.834;2023-04-28T03:51:46;93618.28;;;21.18;34.12
48035;BME280;33812;46.480;6.834;2023-04-28T03:55:50;93635.88;;;21.11;34.35
48035;BME280;33812;46.480;6.834;2023-04-28T03:59:52;93631.97;;;21.09;34.53
48035;BME280;33812;46.480;6.834;2023-04-28T04:03:54;93631.88;;;20.99;34.52
48035;BME280;33812;46.480;6.834;2023-04-28T04:07:57;93625.84;;;20.88;34.66
48035;BME280;33812;46.480;6.834;2023-04-28T04:11:58;93624.13;;;21.07;34.54
48035;BME280;33812;46.480;6.834;2023-04-28T04:16:01;93611.06;;;20.95;34.64
48035;BME280;33812;46.480;6.834;2023-04-28T04:20:04;93603.03;;;21.00;34.67
48035;BME280;33812;46.480;6.834;2023-04-28T04:24:07;93587.00;;;20.95;34.59
48035;BME280;33812;46.480;6.834;2023-04-28T04:28:09;93587.97;;;21.01;34.52
48035;BME280;33812;46.480;6.834;2023-04-28T04:32:11;93587.22;;;21.14;34.12
48035;BME280;33812;46.480;6.834;2023-04-28T04:36:13;93586.22;;;21.08;34.23
48035;BME280;33812;46.480;6.834;2023-04-28T04:40:16;93587.56;;;21.16;34.04
48035;BME280;33812;46.480;6.834;2023-04-28T04:44:18;93596.84;;;21.22;34.07
48035;BME280;33812;46.480;6.834;2023-04-28T04:48:21;93605.47;;;21.11;34.24
48035;BME280;33812;46.480;6.834;2023-04-28T04:52:23;93607.91;;;21.22;34.38
48035;BME280;33812;46.480;6.834;2023-04-28T04:56:26;93606.69;;;21.23;34.26
48035;BME280;33812;46.480;6.834;2023-04-28T05:00:28;93612.66;;;21.22;34.45
48035;BME280;33812;46.480;6.834;2023-04-28T05:04:31;93615.84;;;21.07;34.73
48035;BME280;33812;46.480;6.834;2023-04-28T05:08:32;93630.09;;;21.06;35.37
48035;BME280;33812;46.480;6.834;2023-04-28T05:12:36;93633.75;;;21.16;35.52
48035;BME280;33812;46.480;6.834;2023-04-28T05:16:37;93635.28;;;21.04;34.82
48035;BME280;33812;46.480;6.834;2023-04-28T05:20:39;93639.44;;;20.82;35.52
48035;BME280;33812;46.480;6.834;2023-04-28T05:24:42;93644.47;;;21.26;35.67
48035;BME280;33812;46.480;6.834;2023-04-28T05:28:46;93645.03;;;21.21;34.85
48035;BME280;33812;46.480;6.834;2023-04-28T05:32:48;93641.38;;;21.24;34.88
48035;BME280;33812;46.480;6.834;2023-04-28T05:36:50;93633.00;;;21.41;35.39
48035;BME280;33812;46.480;6.834;2023-04-28T05:40:53;93631.66;;;21.46;34.98
48035;BME280;33812;46.480;6.834;2023-04-28T05:44:56;93632.66;;;21.39;34.81
48035;BME280;33812;46.480;6.834;2023-04-28T05:48:58;93634.66;;;21.25;34.20
48035;BME280;33812;46.480;6.834;2023-04-28T05:53:00;93642.28;;;21.34;35.49
48035;BME280;33812;46.480;6.834;2023-04-28T05:57:12;93648.56;;;21.48;35.58
48035;BME280;33812;46.480;6.834;2023-04-28T06:01:15;93641.94;;;21.45;35.40
48035;BME280;33812;46.480;6.834;2023-04-28T06:05:17;93648.25;;;21.20;34.75
48035;BME280;33812;46.480;6.834;2023-04-28T06:09:21;93662.63;;;21.41;35.38
48035;BME280;33812;46.480;6.834;2023-04-28T06:13:22;93647.03;;;21.47;35.39
48035;BME280;33812;46.480;6.834;2023-04-28T06:17:27;93651.88;;;21.30;35.36
48035;BME280;33812;46.480;6.834;2023-04-28T06:21:35;93648.13;;;21.49;35.87
48035;BME280;33812;46.480;6.834;2023-04-28T06:25:37;93646.34;;;21.56;35.15
48035;BME280;33812;46.480;6.834;2023-04-28T06:29:39;93656.84;;;21.35;35.08
48035;BME280;33812;46.480;6.834;2023-04-28T06:33:42;93656.66;;;21.29;34.57
48035;BME280;33812;46.480;6.834;2023-04-28T06:37:44;93648.81;;;21.28;34.64
48035;BME280;33812;46.480;6.834;2023-04-28T06:41:46;93647.03;;;21.34;35.19
48035;BME280;33812;46.480;6.834;2023-04-28T06:45:48;93656.44;;;21.36;35.13
48035;BME280;33812;46.480;6.834;2023-04-28T06:49:51;93659.63;;;21.35;35.05
48035;BME280;33812;46.480;6.834;2023-04-28T06:53:53;93660.84;;;21.34;35.17
48035;BME280;33812;46.480;6.834;2023-04-28T06:57:55;93665.06;;;21.25;34.53
48035;BME280;33812;46.480;6.834;2023-04-28T07:01:56;93652.66;;;21.30;35.30
48035;BME280;33812;46.480;6.834;2023-04-28T07:06:00;93659.41;;;21.16;34.59
48035;BME280;33812;46.480;6.834;2023-04-28T07:10:03;93672.03;;;21.30;35.13
48035;BME280;33812;46.480;6.834;2023-04-28T07:14:05;93676.00;;;21.42;35.12
48035;BME280;33812;46.480;6.834;2023-04-28T07:18:07;93687.41;;;21.44;34.78
48035;BME280;33812;46.480;6.834;2023-04-28T07:22:11;93684.41;;;21.52;35.19
48035;BME280;33812;46.480;6.834;2023-04-28T07:26:12;93682.97;;;21.34;34.76
48035;BME280;33812;46.480;6.834;2023-04-28T07:30:15;93680.00;;;21.41;36.05
48035;BME280;33812;46.480;6.834;2023-04-28T07:34:17;93682.63;;;21.32;37.52
48035;BME280;33812;46.480;6.834;2023-04-28T07:38:20;93688.59;;;21.30;37.57
48035;BME280;33812;46.480;6.834;2023-04-28T07:42:22;93691.81;;;21.29;36.58
48035;BME280;33812;46.480;6.834;2023-04-28T07:46:24;93690.72;;;21.39;36.31
48035;BME280;33812;46.480;6.834;2023-04-28T07:50:26;93669.47;;;21.62;36.04
48035;BME280;33812;46.480;6.834;2023-04-28T07:54:30;93682.41;;;21.65;35.28
48035;BME280;33812;46.480;6.834;2023-04-28T07:58:32;93689.06;;;21.68;35.47
48035;BME280;33812;46.480;6.834;2023-04-28T08:02:34;93695.91;;;21.63;35.07
48035;BME280;33812;46.480;6.834;2023-04-28T08:06:36;93698.66;;;21.63;35.00
48035;BME280;33812;46.480;6.834;2023-04-28T08:10:40;93688.94;;;21.58;34.92
48035;BME280;33812;46.480;6.834;2023-04-28T08:14:43;93690.94;;;21.58;35.22
48035;BME280;33812;46.480;6.834;2023-04-28T08:18:45;93690.25;;;21.67;35.33
48035;BME280;33812;46.480;6.834;2023-04-28T08:22:46;93698.09;;;21.68;34.99
48035;BME280;33812;46.480;6.834;2023-04-28T08:26:49;93698.56;;;21.67;35.21
48035;BME280;33812;46.480;6.834;2023-04-28T08:30:51;93709.19;;;21.68;35.14
48035;BME280;33812;46.480;6.834;2023-04-28T08:34:54;93706.97;;;21.63;35.05
48035;BME280;33812;46.480;6.834;2023-04-28T08:38:56;93712.84;;;21.65;35.00
48035;BME280;33812;46.480;6.834;2023-04-28T08:43:01;93715.94;;;21.67;35.32
48035;BME280;33812;46.480;6.834;2023-04-28T08:47:04;93707.63;;;21.67;34.98
48035;BME280;33812;46.480;6.834;2023-04-28T08:51:16;93717.38;;;21.72;35.46
48035;BME280;33812;46.480;6.834;2023-04-28T08:55:20;93712.94;;;21.74;35.16
48035;BME280;33812;46.480;6.834;2023-04-28T08:59:24;93718.47;;;21.74;35.02
48035;BME280;33812;46.480;6.834;2023-04-28T09:03:26;93713.50;;;21.82;35.50
48035;BME280;33812;46.480;6.834;2023-04-28T09:07:28;93709.09;;;21.85;35.20
48035;BME280;33812;46.480;6.834;2023-04-28T09:11:30;93710.28;;;21.84;35.18
48035;BME280;33812;46.480;6.834;2023-04-28T09:15:35;93704.75;;;21.84;35.34
48035;BME280;33812;46.480;6.834;2023-04-28T09:19:38;93700.25;;;21.90;35.30
48035;BME280;33812;46.480;6.834;2023-04-28T09:23:47;93706.41;;;21.94;35.24
48035;BME280;33812;46.480;6.834;2023-04-28T09:27:50;93701.44;;;21.89;35.38
48035;BME280;33812;46.480;6.834;2023-04-28T09:31:53;93693.03;;;21.93;35.38
48035;BME280;33812;46.480;6.834;2023-04-28T09:35:55;93692.16;;;21.96;35.51
48035;BME280;33812;46.480;6.834;2023-04-28T09:40:03;93694.03;;;21.99;35.79
48035;BME280;33812;46.480;6.834;2023-04-28T09:44:13;93689.56;;;22.02;35.69
48035;BME280;33812;46.480;6.834;2023-04-28T09:48:16;93692.34;;;22.02;35.54
48035;BME280;33812;46.480;6.834;2023-04-28T09:52:18;93700.97;;;22.04;35.76
48035;BME280;33812;46.480;6.834;2023-04-28T09:56:21;93701.66;;;22.08;36.08
48035;BME280;33812;46.480;6.834;2023-04-28T10:00:25;93701.66;;;22.08;36.53
48035;BME280;33812;46.480;6.834;2023-04-28T10:04:28;93704.75;;;22.10;36.46
48035;BME280;33812;46.480;6.834;2023-04-28T10:08:33;93693.97;;;22.12;36.23
48035;BME280;33812;46.480;6.834;2023-04-28T10:12:35;93696.00;;;22.12;36.27
48035;BME280;33812;46.480;6.834;2023-04-28T10:16:39;93690.78;;;22.14;36.29
48035;BME280;33812;46.480;6.834;2023-04-28T10:20:44;93683.69;;;22.13;36.36
48035;BME280;33812;46.480;6.834;2023-04-28T10:25:01;93695.09;;;22.15;36.60
48035;BME280;33812;46.480;6.834;2023-04-28T10:29:08;93683.56;;;22.16;36.70
48035;BME280;33812;46.480;6.834;2023-04-28T10:33:23;93693.13;;;22.15;36.43
48035;BME280;33812;46.480;6.834;2023-04-28T10:38:02;93679.28;;;22.15;37.17
48035;BME280;33812;46.480;6.834;2023-04-28T10:46:59;93685.44;;;22.19;36.87
48035;BME280;33812;46.480;6.834;2023-04-28T10:51:27;93687.00;;;22.20;36.93
48035;BME280;33812;46.480;6.834;2023-04-28T10:55:31;93675.94;;;22.20;37.07
48035;BME280;33812;46.480;6.834;2023-04-28T10:59:35;93668.38;;;22.21;37.47
48035;BME280;33812;46.480;6.834;2023-04-28T11:03:47;93649.00;;;22.21;37.38
48035;BME280;33812;46.480;6.834;2023-04-28T11:12:31;93663.97;;;22.24;37.54
48035;BME280;33812;46.480;6.834;2023-04-28T11:16:33;93664.72;;;22.24;37.44
48035;BME280;33812;46.480;6.834;2023-04-28T11:20:35;93661.94;;;22.24;37.53
48035;BME280;33812;46.480;6.834;2023-04-28T11:24:38;93674.25;;;22.23;37.60
48035;BME280;33812;46.480;6.834;2023-04-28T11:28:48;93659.19;;;22.24;37.37
48035;BME280;33812;46.480;6.834;2023-04-28T11:32:50;93660.75;;;22.25;37.68
48035;BME280;33812;46.480;6.834;2023-04-28T11:36:52;93639.38;;;22.26;38.01
48035;BME280;33812;46.480;6.834;2023-04-28T11:40:57;93628.16;;;22.29;37.44
48035;BME280;33812;46.480;6.834;2023-04-28T11:45:00;93628.94;;;22.30;38.49
48035;BME280;33812;46.480;6.834;2023-04-28T11:49:04;93638.34;;;22.32;37.99
48035;BME280;33812;46.480;6.834;2023-04-28T11:53:05;93646.22;;;22.34;37.84
48035;BME280;33812;46.480;6.834;2023-04-28T11:57:17;93636.78;;;22.31;38.00
48035;BME280;33812;46.480;6.834;2023-04-28T12:01:21;93634.34;;;22.33;37.34
48035;BME280;33812;46.480;6.834;2023-04-28T12:05:23;93636.34;;;22.33;37.82
48035;BME280;33812;46.480;6.834;2023-04-28T12:09:24;93627.59;;;22.34;37.37
48035;BME280;33812;46.480;6.834;2023-04-28T12:13:26;93633.16;;;22.34;37.58
48035;BME280;33812;46.480;6.834;2023-04-28T12:17:31;93635.91;;;22.34;38.06
48035;BME280;33812;46.480;6.834;2023-04-28T12:21:33;93639.75;;;22.37;38.31
48035;BME280;33812;46.480;6.834;2023-04-28T12:25:42;93635.00;;;22.38;37.86
48035;BME280;33812;46.480;6.834;2023-04-28T12:29:44;93634.69;;;22.36;38.17
48035;BME280;33812;46.480;6.834;2023-04-28T12:33:49;93641.75;;;22.37;38.10
48035;BME280;33812;46.480;6.834;2023-04-28T12:37:51;93636.66;;;22.35;38.13
48035;BME280;33812;46.480;6.834;2023-04-28T12:41:53;93629.94;;;22.36;38.88
48035;BME280;33812;46.480;6.834;2023-04-28T12:45:55;93632.56;;;22.40;38.39
48035;BME280;33812;46.480;6.834;2023-04-28T12:49:58;93625.91;;;22.37;38.73
48035;BME280;33812;46.480;6.834;2023-04-28T12:54:00;93625.03;;;22.40;37.92
48035;BME280;33812;46.480;6.834;2023-04-28T12:58:02;93612.06;;;22.37;38.59
48035;BME280;33812;46.480;6.834;2023-04-28T13:02:03;93635.63;;;22.42;38.46
48035;BME280;33812;46.480;6.834;2023-04-28T13:06:06;93627.34;;;22.42;38.25
48035;BME280;33812;46.480;6.834;2023-04-28T13:10:10;93628.44;;;22.44;38.09
48035;BME280;33812;46.480;6.834;2023-04-28T13:14:12;93629.22;;;22.45;38.10
48035;BME280;33812;46.480;6.834;2023-04-28T13:18:14;93608.94;;;22.48;37.84
48035;BME280;33812;46.480;6.834;2023-04-28T13:22:17;93618.78;;;22.49;37.87
48035;BME280;33812;46.480;6.834;2023-04-28T13:26:21;93614.34;;;22.52;38.09
48035;BME280;33812;46.480;6.834;2023-04-28T13:30:24;93605.25;;;22.51;38.21
48035;BME280;33812;46.480;6.834;2023-04-28T13:34:26;93599.72;;;22.51;38.19
48035;BME280;33812;46.480;6.834;2023-04-28T13:38:29;93592.94;;;22.52;38.38
48035;BME280;33812;46.480;6.834;2023-04-28T13:42:31;93598.81;;;22.54;38.42
48035;BME280;33812;46.480;6.834;2023-04-28T13:46:32;93589.28;;;22.55;38.48
48035;BME280;33812;46.480;6.834;2023-04-28T13:50:34;93583.09;;;22.51;38.51
48035;BME280;33812;46.480;6.834;2023-04-28T13:54:37;93582.97;;;22.55;38.72
48035;BME280;33812;46.480;6.834;2023-04-28T13:58:39;93579.75;;;22.56;38.69
48035;BME280;33812;46.480;6.834;2023-04-28T14:02:41;93584.06;;;22.57;38.67
48035;BME280;33812;46.480;6.834;2023-04-28T14:06:44;93578.97;;;22.56;38.63
48035;BME280;33812;46.480;6.834;2023-04-28T14:10:48;93578.50;;;22.57;38.85
48035;BME280;33812;46.480;6.834;2023-04-28T14:14:49;93577.75;;;22.57;38.51
48035;BME280;33812;46.480;6.834;2023-04-28T14:18:51;93569.44;;;22.57;38.49
48035;BME280;33812;46.480;6.834;2023-04-28T14:22:54;93567.44;;;22.57;38.56
48035;BME280;33812;46.480;6.834;2023-04-28T14:26:57;93560.69;;;22.58;38.47
48035;BME280;33812;46.480;6.834;2023-04-28T14:31:02;93564.22;;;22.59;38.49
48035;BME280;33812;46.480;6.834;2023-04-28T14:35:07;93560.69;;;22.58;38.69
48035;BME280;33812;46.480;6.834;2023-04-28T14:39:09;93558.38;;;22.57;38.76
48035;BME280;33812;46.480;6.834;2023-04-28T14:43:12;93564.66;;;22.57;38.84
48035;BME280;33812;46.480;6.834;2023-04-28T14:47:15;93554.81;;;22.56;38.77
48035;BME280;33812;46.480;6.834;2023-04-28T14:51:17;93553.72;;;22.54;39.11
48035;BME280;33812;46.480;6.834;2023-04-28T14:55:20;93552.06;;;22.56;38.71
48035;BME280;33812;46.480;6.834;2023-04-28T14:59:24;93556.81;;;22.56;39.23
48035;BME280;33812;46.480;6.834;2023-04-28T15:03:26;93549.75;;;22.55;38.97
48035;BME280;33812;46.480;6.834;2023-04-28T15:07:28;93556.81;;;22.56;39.10
48035;BME280;33812;46.480;6.834;2023-04-28T15:11:31;93551.28;;;22.56;39.02
48035;BME280;33812;46.480;6.834;2023-04-28T15:15:34;93552.06;;;22.56;38.84
48035;BME280;33812;46.480;6.834;2023-04-28T15:19:36;93541.88;;;22.53;38.82
48035;BME280;33812;46.480;6.834;2023-04-28T15:23:38;93550.06;;;22.57;38.77
48035;BME280;33812;46.480;6.834;2023-04-28T15:27:40;93557.13;;;22.58;38.71
48035;BME280;33812;46.480;6.834;2023-04-28T15:31:43;93549.75;;;22.55;39.51
48035;BME280;33812;46.480;6.834;2023-04-28T15:35:44;93552.84;;;22.57;39.00
48035;BME280;33812;46.480;6.834;2023-04-28T15:39:46;93550.81;;;22.57;38.61
48035;BME280;33812;46.480;6.834;2023-04-28T15:43:49;93549.59;;;22.58;39.33
48035;BME280;33812;46.480;6.834;2023-04-28T15:47:52;93554.38;;;22.58;39.14
48035;BME280;33812;46.480;6.834;2023-04-28T15:51:56;93557.47;;;22.60;39.14
48035;BME280;33812;46.480;6.834;2023-04-28T15:55:58;93550.38;;;22.59;38.76
48035;BME280;33812;46.480;6.834;2023-04-28T16:00:00;93543.63;;;22.60;38.35
48035;BME280;33812;46.480;6.834;2023-04-28T16:04:04;93540.41;;;22.62;38.53
48035;BME280;33812;46.480;6.834;2023-04-28T16:08:06;93542.38;;;22.61;38.54
48035;BME280;33812;46.480;6.834;2023-04-28T16:12:10;93535.66;;;22.62;38.46
48035;BME280;33812;46.480;6.834;2023-04-28T16:16:12;93534.31;;;22.54;38.38
48035;BME280;33812;46.480;6.834;2023-04-28T16:20:15;93526.03;;;22.54;38.65
48035;BME280;33812;46.480;6.834;2023-04-28T16:24:17;93537.88;;;22.54;38.66
48035;BME280;33812;46.480;6.834;2023-04-28T16:28:21;93528.38;;;22.55;38.92
48035;BME280;33812;46.480;6.834;2023-04-28T16:32:29;93527.13;;;22.56;38.70
48035;BME280;33812;46.480;6.834;2023-04-28T16:36:34;93531.88;;;22.56;38.86
48035;BME280;33812;46.480;6.834;2023-04-28T16:40:37;93524.22;;;22.60;38.86
48035;BME280;33812;46.480;6.834;2023-04-28T16:44:41;93517.28;;;22.55;38.83
48035;BME280;33812;46.480;6.834;2023-04-28T16:48:43;93519.59;;;22.57;38.93
48035;BME280;33812;46.480;6.834;2023-04-28T16:52:47;93517.91;;;22.59;39.15
48035;BME280;33812;46.480;6.834;2023-04-28T16:56:48;93534.66;;;22.56;39.17
48035;BME280;33812;46.480;6.834;2023-04-28T17:00:50;93512.81;;;22.58;38.98
48035;BME280;33812;46.480;6.834;2023-04-28T17:04:52;93513.16;;;22.60;39.06
48035;BME280;33812;46.480;6.834;2023-04-28T17:08:55;93517.91;;;22.59;38.85
48035;BME280;33812;46.480;6.834;2023-04-28T17:12:58;93522.22;;;22.61;39.20
48035;BME280;33812;46.480;6.834;2023-04-28T17:17:00;93518.03;;;22.56;38.88
48035;BME280;33812;46.480;6.834;2023-04-28T17:21:02;93521.25;;;22.54;38.82
48035;BME280;33812;46.480;6.834;2023-04-28T17:25:07;93524.28;;;22.47;38.57
48035;BME280;33812;46.480;6.834;2023-04-28T17:29:10;93519.94;;;22.37;38.37
48035;BME280;33812;46.480;6.834;2023-04-28T17:33:13;93516.91;;;22.44;38.58
48035;BME280;33812;46.480;6.834;2023-04-28T17:37:16;93520.25;;;22.39;38.07
48035;BME280;33812;46.480;6.834;2023-04-28T17:41:19;93520.38;;;22.35;38.06
48035;BME280;33812;46.480;6.834;2023-04-28T17:45:24;93528.69;;;22.35;37.76
48035;BME280;33812;46.480;6.834;2023-04-28T17:49:25;93521.03;;;22.39;37.66
48035;BME280;33812;46.480;6.834;2023-04-28T17:53:27;93526.25;;;22.37;37.74
48035;BME280;33812;46.480;6.834;2023-04-28T17:57:31;93531.41;;;22.48;39.70
48035;BME280;33812;46.480;6.834;2023-04-28T18:01:33;93517.41;;;22.52;39.83
48035;BME280;33812;46.480;6.834;2023-04-28T18:05:35;93513.28;;;22.56;40.04
48035;BME280;33812;46.480;6.834;2023-04-28T18:09:38;93512.81;;;22.58;40.25
48035;BME280;33812;46.480;6.834;2023-04-28T18:13:41;93511.56;;;22.50;39.57
48035;BME280;33812;46.480;6.834;2023-04-28T18:17:43;93508.41;;;22.38;38.39
48035;BME280;33812;46.480;6.834;2023-04-28T18:21:45;93494.03;;;22.53;37.56
48035;BME280;33812;46.480;6.834;2023-04-28T18:25:48;93490.59;;;22.49;37.61
48035;BME280;33812;46.480;6.834;2023-04-28T18:29:55;93487.22;;;22.44;37.48
48035;BME280;33812;46.480;6.834;2023-04-28T18:33:59;93490.56;;;22.39;37.75
48035;BME280;33812;46.480;6.834;2023-04-28T18:38:04;93474.88;;;22.36;38.69
48035;BME280;33812;46.480;6.834;2023-04-28T18:42:08;93480.22;;;22.30;39.52
48035;BME280;33812;46.480;6.834;2023-04-28T18:46:11;93477.66;;;22.36;38.68
48035;BME280;33812;46.480;6.834;2023-04-28T18:50:13;93489.34;;;22.40;39.79
48035;BME280;33812;46.480;6.834;2023-04-28T18:54:16;93491.19;;;22.43;40.25
48035;BME280;33812;46.480;6.834;2023-04-28T18:58:17;93482.91;;;22.43;41.21
48035;BME280;33812;46.480;6.834;2023-04-28T19:02:21;93488.28;;;22.47;40.97
48035;BME280;33812;46.480;6.834;2023-04-28T19:06:23;93497.84;;;22.46;40.65
48035;BME280;33812;46.480;6.834;2023-04-28T19:10:25;93500.03;;;22.51;41.38
48035;BME280;33812;46.480;6.834;2023-04-28T19:14:26;93492.94;;;22.50;41.64
48035;BME280;33812;46.480;6.834;2023-04-28T19:18:32;93509.41;;;22.54;41.65
48035;BME280;33812;46.480;6.834;2023-04-28T19:22:37;93512.50;;;22.56;42.40
48035;BME280;33812;46.480;6.834;2023-04-28T19:26:44;93510.31;;;22.51;42.51
48035;BME280;33812;46.480;6.834;2023-04-28T19:30:54;93501.09;;;22.54;42.83
48035;BME280;33812;46.480;6.834;2023-04-28T19:35:02;93528.97;;;22.59;43.43
48035;BME280;33812;46.480;6.834;2023-04-28T19:39:08;93546.50;;;22.56;44.00
48035;BME280;33812;46.480;6.834;2023-04-28T19:43:10;93538.06;;;22.60;44.02
48035;BME280;33812;46.480;6.834;2023-04-28T19:47:12;93542.38;;;22.61;43.91
48035;BME280;33812;46.480;6.834;2023-04-28T19:51:16;93557.03;;;22.62;44.38
48035;BME280;33812;46.480;6.834;2023-04-28T19:55:18;93581.50;;;22.63;44.28
48035;BME280;33812;46.480;6.834;2023-04-28T19:59:21;93573.44;;;22.56;45.43
48035;BME280;33812;46.480;6.834;2023-04-28T20:03:22;93566.69;;;22.57;44.50
48035;BME280;33812;46.480;6.834;2023-04-28T20:07:28;93564.09;;;22.63;44.26
48035;BME280;33812;46.480;6.834;2023-04-28T20:11:30;93580.28;;;22.64;44.54
48035;BME280;33812;46.480;6.834;2023-04-28T20:15:40;93606.88;;;22.62;44.31
48035;BME280;33812;46.480;6.834;2023-04-28T20:19:43;93625.59;;;22.57;44.60
48035;BME280;33812;46.480;6.834;2023-04-28T20:23:46;93639.06;;;22.46;45.70
48035;BME280;33812;46.480;6.834;2023-04-28T20:27:48;93670.09;;;22.41;45.60
48035;BME280;33812;46.480;6.834;2023-04-28T20:31:51;93712.31;;;22.32;45.69
48035;BME280;33812;46.480;6.834;2023-04-28T20:35:54;93766.84;;;22.22;46.55
48035;BME280;33812;46.480;6.834;2023-04-28T20:39:57;93794.72;;;22.28;46.94
48035;BME280;33812;46.480;6.834;2023-04-28T20:44:00;93777.91;;;22.22;47.34
48035;BME280;33812;46.480;6.834;2023-04-28T20:48:02;93761.41;;;22.05;48.05
48035;BME280;33812;46.480;6.834;2023-04-28T20:52:06;93767.16;;;21.98;48.10
48035;BME280;33812;46.480;6.834;2023-04-28T20:56:12;93768.19;;;22.04;47.95
48035;BME280;33812;46.480;6.834;2023-04-28T21:00:18;93765.94;;;22.25;46.79
48035;BME280;33812;46.480;6.834;2023-04-28T21:04:34;93740.00;;;22.32;46.37
48035;BME280;33812;46.480;6.834;2023-04-28T21:08:53;93715.56;;;22.17;47.02
48035;BME280;33812;46.480;6.834;2023-04-28T21:13:00;93709.91;;;22.21;46.73
48035;BME280;33812;46.480;6.834;2023-04-28T21:17:03;93728.19;;;22.18;46.85
48035;BME280;33812;46.480;6.834;2023-04-28T21:21:05;93702.16;;;22.16;46.77
48035;BME280;33812;46.480;6.834;2023-04-28T21:25:07;93698.94;;;22.17;46.61
48035;BME280;33812;46.480;6.834;2023-04-28T21:29:20;93705.22;;;21.82;47.76
48035;BME280;33812;46.480;6.834;2023-04-28T21:33:23;93701.44;;;21.89;47.05
48035;BME280;33812;46.480;6.834;2023-04-28T21:37:24;93685.41;;;21.97;47.03